createdAt,value
2018-09-01T00:00:50.392Z,101774.66
2018-09-01T00:03:20.133Z,101778.51
2018-09-01T00:05:49.869Z,101776.22
2018-09-01T00:08:19.691Z,101766.72
2018-09-01T00:10:49.637Z,101772.17
2018-09-01T00:13:19.461Z,101775.42
2018-09-01T00:15:49.260Z,101769.25
2018-09-01T00:18:18.955Z,101776.50
2018-09-01T00:20:48.661Z,101770.43
2018-09-01T00:23:18.402Z,101782.95
2018-09-01T00:25:48.089Z,101783.94
2018-09-01T00:28:17.779Z,101790.04
2018-09-01T00:30:47.804Z,101785.23
2018-09-01T00:33:17.582Z,101788.47
2018-09-01T00:35:47.399Z,101791.83
2018-09-01T00:38:22.176Z,101793.20
2018-09-01T00:40:51.860Z,101787.10
2018-09-01T00:43:21.585Z,101792.02
2018-09-01T00:45:51.368Z,101791.52
2018-09-01T00:48:21.290Z,101794.39
2018-09-01T00:50:51.000Z,101791.83
2018-09-01T00:53:20.716Z,101792.43
2018-09-01T00:55:50.396Z,101790.03
2018-09-01T00:58:20.215Z,101788.23
2018-09-01T01:00:49.986Z,101790.44
2018-09-01T01:03:19.648Z,101792.81
2018-09-01T01:05:49.314Z,101793.16
2018-09-01T01:08:18.997Z,101800.43
2018-09-01T01:10:48.704Z,101798.94
2018-09-01T01:13:18.468Z,101802.36
2018-09-01T01:15:48.247Z,101802.63
2018-09-01T01:18:17.974Z,101800.25
2018-09-01T01:20:47.771Z,101802.05
2018-09-01T01:23:17.449Z,101809.33
2018-09-01T01:25:47.352Z,101810.41
2018-09-01T01:28:17.030Z,101808.11
2018-09-01T01:30:46.738Z,101799.92
2018-09-01T01:33:16.629Z,101801.55
2018-09-01T01:35:46.407Z,101804.27
2018-09-01T01:38:16.223Z,101804.31
2018-09-01T01:40:45.905Z,101802.85
2018-09-01T01:43:15.609Z,101808.03
2018-09-01T01:45:45.340Z,101807.88
2018-09-01T01:48:15.246Z,101802.10
2018-09-01T01:50:45.148Z,101801.94
2018-09-01T01:53:14.934Z,101798.84
2018-09-01T01:55:44.610Z,101806.11
2018-09-01T01:58:14.354Z,101811.22
2018-09-01T02:00:44.072Z,101804.86
2018-09-01T02:03:13.790Z,101801.22
2018-09-01T02:05:43.483Z,101805.03
2018-09-01T02:08:13.166Z,101803.45
2018-09-01T02:10:42.860Z,101799.68
2018-09-01T02:13:12.518Z,101797.67
2018-09-01T02:15:42.214Z,101800.26
2018-09-01T02:18:11.938Z,101801.69
2018-09-01T02:20:41.702Z,101801.43
2018-09-01T02:23:11.395Z,101800.22
2018-09-01T02:25:41.093Z,101796.71
2018-09-01T02:28:10.846Z,101797.79
2018-09-01T02:30:40.547Z,101800.84
2018-09-01T02:33:10.319Z,101796.13
2018-09-01T02:35:40.215Z,101801.08
2018-09-01T02:38:10.011Z,101801.21
2018-09-01T02:40:39.719Z,101801.80
2018-09-01T02:43:09.460Z,101804.84
2018-09-01T02:45:39.149Z,101798.70
2018-09-01T02:48:08.798Z,101803.66
2018-09-01T02:50:38.679Z,101804.55
2018-09-01T02:53:08.402Z,101801.42
2018-09-01T02:55:38.251Z,101806.01
2018-09-01T02:58:08.261Z,101807.25
2018-09-01T03:00:38.773Z,101806.42
2018-09-01T03:03:08.657Z,101806.14
2018-09-01T03:05:38.400Z,101813.63
2018-09-01T03:08:08.130Z,101809.55
2018-09-01T03:10:37.815Z,101809.63
2018-09-01T03:13:07.607Z,101815.91
2018-09-01T03:15:37.367Z,101818.36
2018-09-01T03:18:07.072Z,101819.41
2018-09-01T03:20:36.761Z,101818.67
2018-09-01T03:23:06.445Z,101810.67
2018-09-01T03:25:36.085Z,101818.34
2018-09-01T03:28:05.918Z,101824.99
2018-09-01T03:30:35.703Z,101823.11
2018-09-01T03:33:05.412Z,101823.63
2018-09-01T03:35:35.284Z,101823.31
2018-09-01T03:38:05.126Z,101831.95
2018-09-01T03:40:34.886Z,101828.77
2018-09-01T03:43:04.707Z,101827.94
2018-09-01T03:45:34.434Z,101834.82
2018-09-01T03:48:04.322Z,101831.41
2018-09-01T03:50:34.084Z,101840.05
2018-09-01T03:53:06.821Z,101842.21
2018-09-01T03:55:36.489Z,101839.63
2018-09-01T03:58:06.616Z,101839.95
2018-09-01T04:00:36.342Z,101839.77
2018-09-01T04:03:06.186Z,101839.22
2018-09-01T04:05:35.916Z,101838.33
2018-09-01T04:08:05.925Z,101836.02
2018-09-01T04:10:35.723Z,101839.16
2018-09-01T04:13:05.558Z,101832.55
2018-09-01T04:15:35.455Z,101838.88
2018-09-01T04:18:05.324Z,101842.83
2018-09-01T04:20:35.044Z,101842.16
2018-09-01T04:23:04.826Z,101845.23
2018-09-01T04:25:34.554Z,101852.22
2018-09-01T04:28:04.306Z,101852.17
2018-09-01T04:30:34.144Z,101850.93
2018-09-01T04:33:03.877Z,101848.16
2018-09-01T04:35:34.121Z,101850.93
2018-09-01T04:38:03.903Z,101850.97
2018-09-01T04:40:33.625Z,101855.23
2018-09-01T04:43:04.266Z,101852.41
2018-09-01T04:45:34.001Z,101860.99
2018-09-01T04:48:03.837Z,101858.41
2018-09-01T04:50:33.537Z,101867.84
2018-09-01T04:53:03.496Z,101871.58
2018-09-01T04:55:33.199Z,101874.31
2018-09-01T04:58:02.874Z,101878.98
2018-09-01T05:00:32.876Z,101872.05
2018-09-01T05:03:02.655Z,101882.48
2018-09-01T05:05:32.305Z,101889.29
2018-09-01T05:08:01.950Z,101891.05
2018-09-01T05:10:31.706Z,101889.42
2018-09-01T05:13:01.470Z,101892.52
2018-09-01T05:15:31.142Z,101888.02
2018-09-01T05:18:00.911Z,101891.82
2018-09-01T05:20:30.593Z,101893.58
2018-09-01T05:23:00.331Z,101894.69
2018-09-01T05:25:31.223Z,101896.77
2018-09-01T05:28:01.169Z,101898.33
2018-09-01T05:30:30.894Z,101901.84
2018-09-01T05:33:00.714Z,101898.81
2018-09-01T05:35:30.448Z,101900.34
2018-09-01T05:38:00.161Z,101902.92
2018-09-01T05:40:30.069Z,101902.53
2018-09-01T05:42:59.913Z,101901.73
2018-09-01T05:45:29.590Z,101906.62
2018-09-01T05:47:59.294Z,101910.61
2018-09-01T05:50:29.007Z,101909.39
2018-09-01T05:52:58.753Z,101913.86
2018-09-01T05:55:28.497Z,101920.77
2018-09-01T05:57:58.165Z,101920.22
2018-09-01T06:00:28.041Z,101928.57
2018-09-01T06:02:57.768Z,101930.69
2018-09-01T06:05:27.613Z,101929.36
2018-09-01T06:07:57.339Z,101933.15
2018-09-01T06:10:27.066Z,101936.47
2018-09-01T06:12:56.792Z,101939.92
2018-09-01T06:15:26.546Z,101941.06
2018-09-01T06:17:56.341Z,101938.19
2018-09-01T06:20:25.969Z,101944.44
2018-09-01T06:22:55.682Z,101942.41
2018-09-01T06:25:25.471Z,101938.89
2018-09-01T06:27:57.381Z,101938.56
2018-09-01T06:30:29.919Z,101934.95
2018-09-01T06:32:59.750Z,101936.62
2018-09-01T06:35:29.483Z,101948.05
2018-09-01T06:37:59.226Z,101950.88
2018-09-01T06:40:29.005Z,101954.22
2018-09-01T06:42:58.952Z,101951.33
2018-09-01T06:45:28.628Z,101949.66
2018-09-01T06:47:58.355Z,101946.99
2018-09-01T06:50:28.200Z,101952.05
2018-09-01T06:52:58.098Z,101953.05
2018-09-01T06:55:27.779Z,101953.95
2018-09-01T06:57:57.571Z,101947.11
2018-09-01T07:00:27.349Z,101946.30
2018-09-01T07:02:57.596Z,101948.42
2018-09-01T07:05:27.442Z,101953.06
2018-09-01T07:07:57.164Z,101953.56
2018-09-01T07:10:26.877Z,101956.45
2018-09-01T07:12:56.607Z,101959.33
2018-09-01T07:15:26.387Z,101958.23
2018-09-01T07:17:56.049Z,101964.38
2018-09-01T07:20:25.883Z,101969.70
2018-09-01T07:22:55.573Z,101967.30
2018-09-01T07:25:25.399Z,101973.29
2018-09-01T07:27:55.334Z,101975.80
2018-09-01T07:30:25.098Z,101976.63
2018-09-01T07:32:54.811Z,101977.31
2018-09-01T07:35:24.566Z,101978.79
2018-09-01T07:37:54.460Z,101976.80
2018-09-01T07:40:24.142Z,101971.52
2018-09-01T07:42:53.864Z,101977.27
2018-09-01T07:45:23.589Z,101980.24
2018-09-01T07:47:53.315Z,101986.98
2018-09-01T07:50:23.206Z,101987.17
2018-09-01T07:52:55.367Z,101993.28
2018-09-01T07:55:25.113Z,101998.86
2018-09-01T07:57:54.969Z,101995.55
2018-09-01T08:00:24.725Z,101994.53
2018-09-01T08:02:54.426Z,101999.27
2018-09-01T08:05:24.207Z,102001.64
2018-09-01T08:07:54.093Z,101999.89
2018-09-01T08:10:23.828Z,102001.58
2018-09-01T08:12:53.506Z,101999.31
2018-09-01T08:15:23.528Z,101997.53
2018-09-01T08:17:53.346Z,101999.98
2018-09-01T08:20:23.073Z,101998.32
2018-09-01T08:22:52.948Z,102005.72
2018-09-01T08:25:22.712Z,102006.86
2018-09-01T08:30:35.113Z,102004.64
2018-09-01T08:33:10.501Z,102014.50
2018-09-01T08:35:40.472Z,102011.74
2018-09-01T08:38:10.285Z,102017.28
2018-09-01T08:40:40.100Z,102013.39
2018-09-01T08:43:09.934Z,102020.05
2018-09-01T08:45:39.804Z,102018.77
2018-09-01T08:48:09.540Z,102021.85
2018-09-01T08:50:39.571Z,102031.55
2018-09-01T08:53:09.290Z,102030.88
2018-09-01T08:55:39.102Z,102032.08
2018-09-01T08:58:08.866Z,102030.60
2018-09-01T09:00:38.696Z,102038.84
2018-09-01T09:03:08.408Z,102035.02
2018-09-01T09:05:38.229Z,102030.14
2018-09-01T09:08:07.957Z,102035.58
2018-09-01T09:10:37.857Z,102033.09
2018-09-01T09:13:07.708Z,102034.74
2018-09-01T09:15:37.424Z,102030.56
2018-09-01T09:18:07.162Z,102029.19
2018-09-01T09:20:36.938Z,102031.28
2018-09-01T09:23:07.292Z,102023.92
2018-09-01T09:25:37.010Z,102034.70
2018-09-01T09:28:07.417Z,102029.39
2018-09-01T09:30:37.146Z,102023.83
2018-09-01T09:33:07.090Z,102024.18
2018-09-01T09:35:36.782Z,102027.51
2018-09-01T09:38:06.731Z,102026.22
2018-09-01T09:40:36.530Z,102018.33
2018-09-01T09:43:06.550Z,102015.00
2018-09-01T09:45:36.255Z,102023.84
2018-09-01T09:48:06.088Z,102026.44
2018-09-01T09:50:35.811Z,102025.66
2018-09-01T09:53:05.972Z,102020.98
2018-09-01T09:55:35.821Z,102020.43
2018-09-01T09:58:05.728Z,102014.75
2018-09-01T10:00:40.550Z,102019.05
2018-09-01T10:03:10.514Z,102022.38
2018-09-01T10:05:40.336Z,102015.10
2018-09-01T10:08:10.802Z,102018.30
2018-09-01T10:10:40.571Z,102011.91
2018-09-01T10:13:10.400Z,102014.47
2018-09-01T10:15:40.257Z,102015.45
2018-09-01T10:18:09.982Z,102015.82
2018-09-01T10:20:39.897Z,102010.56
2018-09-01T10:23:09.973Z,102007.39
2018-09-01T10:25:39.849Z,102002.06
2018-09-01T10:28:09.668Z,102005.83
2018-09-01T10:30:40.060Z,102000.53
2018-09-01T10:33:09.851Z,102004.78
2018-09-01T10:35:39.545Z,102001.08
2018-09-01T10:38:09.302Z,102004.83
2018-09-01T10:40:39.173Z,102000.77
2018-09-01T10:43:09.999Z,102005.88
2018-09-01T10:45:39.826Z,102004.61
2018-09-01T10:48:09.588Z,102005.28
2018-09-01T10:50:39.646Z,101997.95
2018-09-01T10:53:09.549Z,101998.36
2018-09-01T10:55:39.309Z,101996.27
2018-09-01T10:58:09.017Z,101988.45
2018-09-01T11:00:38.720Z,101998.94
2018-09-01T11:03:08.435Z,101985.77
2018-09-01T11:05:38.410Z,101987.73
2018-09-01T11:08:08.098Z,101992.44
2018-09-01T11:10:37.881Z,101990.69
2018-09-01T11:13:07.573Z,101992.03
2018-09-01T11:15:38.486Z,101995.62
2018-09-01T11:18:08.872Z,101994.84
2018-09-01T11:20:38.784Z,101990.91
2018-09-01T11:23:08.491Z,101981.85
2018-09-01T11:25:38.287Z,101979.83
2018-09-01T11:28:08.653Z,101978.58
2018-09-01T11:30:40.884Z,101981.93
2018-09-01T11:33:10.628Z,101983.23
2018-09-01T11:35:40.500Z,101977.29
2018-09-01T11:38:10.372Z,101975.67
2018-09-01T11:40:40.069Z,101971.64
2018-09-01T11:43:10.068Z,101975.50
2018-09-01T11:45:40.557Z,101974.45
2018-09-01T11:48:10.363Z,101981.72
2018-09-01T11:50:40.143Z,101977.41
2018-09-01T11:53:10.015Z,101976.12
2018-09-01T11:55:39.782Z,101978.50
2018-09-01T11:58:09.778Z,101972.60
2018-09-01T12:00:39.606Z,101964.98
2018-09-01T12:03:09.440Z,101960.06
2018-09-01T12:05:39.408Z,101964.52
2018-09-01T12:08:09.143Z,101963.03
2018-09-01T12:10:41.690Z,101969.57
2018-09-01T12:13:11.408Z,101963.30
2018-09-01T12:15:41.286Z,101963.84
2018-09-01T12:18:11.132Z,101960.95
2018-09-01T12:20:41.173Z,101970.05
2018-09-01T12:23:10.890Z,101955.87
2018-09-01T12:25:40.619Z,101952.58
2018-09-01T12:28:10.396Z,101959.06
2018-09-01T12:30:40.115Z,101952.75
2018-09-01T12:33:09.814Z,101961.47
2018-09-01T12:35:39.798Z,101956.44
2018-09-01T12:38:09.561Z,101962.13
2018-09-01T12:40:39.472Z,101953.89
2018-09-01T12:43:09.518Z,101964.16
2018-09-01T12:45:39.210Z,101946.02
2018-09-01T12:48:09.085Z,101948.69
2018-09-01T12:50:38.772Z,101946.58
2018-09-01T12:53:08.630Z,101941.86
2018-09-01T12:55:39.481Z,101939.48
2018-09-01T12:58:09.203Z,101941.23
2018-09-01T13:00:39.201Z,101945.64
2018-09-01T13:03:09.986Z,101940.81
2018-09-01T13:05:39.944Z,101948.58
2018-09-01T13:08:09.806Z,101942.32
2018-09-01T13:10:41.158Z,101947.97
2018-09-01T13:13:12.042Z,101935.06
2018-09-01T13:15:42.485Z,101936.00
2018-09-01T13:18:12.348Z,101934.49
2018-09-01T13:20:42.177Z,101933.90
2018-09-01T13:23:11.975Z,101935.14
2018-09-01T13:25:41.872Z,101935.28
2018-09-01T13:28:11.742Z,101941.69
2018-09-01T13:30:41.582Z,101934.39
2018-09-01T13:33:11.546Z,101933.33
2018-09-01T13:35:41.653Z,101932.78
2018-09-01T13:38:11.495Z,101939.88
2018-09-01T13:40:41.621Z,101938.18
2018-09-01T13:43:12.617Z,101933.43
2018-09-01T13:45:42.476Z,101936.92
2018-09-01T13:48:12.363Z,101929.33
2018-09-01T13:50:42.214Z,101925.70
2018-09-01T13:53:11.993Z,101931.84
2018-09-01T13:55:41.936Z,101931.08
2018-09-01T13:58:11.844Z,101931.17
2018-09-01T14:00:41.993Z,101938.20
2018-09-01T14:03:11.904Z,101931.95
2018-09-01T14:05:41.582Z,101932.07
2018-09-01T14:08:11.351Z,101930.57
2018-09-01T14:10:41.474Z,101921.94
2018-09-01T14:13:11.290Z,101924.51
2018-09-01T14:15:42.156Z,101921.55
2018-09-01T14:18:11.941Z,101922.03
2018-09-01T14:20:42.681Z,101916.30
2018-09-01T14:23:12.528Z,101912.52
2018-09-01T14:25:43.581Z,101914.97
2018-09-01T14:28:13.969Z,101919.14
2018-09-01T14:30:43.806Z,101908.28
2018-09-01T14:33:14.152Z,101913.27
2018-09-01T14:35:44.971Z,101912.19
2018-09-01T14:38:14.728Z,101910.38
2018-09-01T14:40:44.435Z,101912.50
2018-09-01T14:43:14.173Z,101909.73
2018-09-01T14:45:43.902Z,101911.18
2018-09-01T14:48:13.608Z,101906.88
2018-09-01T14:50:43.305Z,101910.81
2018-09-01T14:53:13.171Z,101910.56
2018-09-01T14:55:43.262Z,101906.14
2018-09-01T14:58:14.195Z,101904.09
2018-09-01T15:00:44.925Z,101906.57
2018-09-01T15:03:14.774Z,101912.59
2018-09-01T15:05:45.065Z,101919.83
2018-09-01T15:08:15.497Z,101914.00
2018-09-01T15:10:45.257Z,101914.75
2018-09-01T15:13:15.603Z,101909.00
2018-09-01T15:15:45.625Z,101907.41
2018-09-01T15:18:16.209Z,101895.80
2018-09-01T15:20:46.475Z,101894.05
2018-09-01T15:23:16.214Z,101906.50
2018-09-01T15:25:46.189Z,101905.84
2018-09-01T15:28:16.945Z,101903.93
2018-09-01T15:30:46.914Z,101909.72
2018-09-01T15:33:19.605Z,101908.33
2018-09-01T15:35:49.589Z,101906.34
2018-09-01T15:40:45.089Z,101905.80
2018-09-01T15:43:14.907Z,101904.41
2018-09-01T15:45:44.651Z,101900.23
2018-09-01T15:48:14.507Z,101900.14
2018-09-01T15:50:44.247Z,101895.87
2018-09-01T15:53:13.957Z,101898.98
2018-09-01T15:55:43.811Z,101899.38
2018-09-01T15:58:13.640Z,101899.88
2018-09-01T16:00:43.328Z,101903.64
2018-09-01T16:03:13.204Z,101910.13
2018-09-01T16:05:42.917Z,101913.69
2018-09-01T16:08:12.703Z,101898.27
2018-09-01T16:10:42.408Z,101901.86
2018-09-01T16:13:12.165Z,101899.80
2018-09-01T16:15:42.018Z,101898.84
2018-09-01T16:18:12.084Z,101900.91
2018-09-01T16:20:41.945Z,101895.59
2018-09-01T16:23:11.691Z,101895.68
2018-09-01T16:25:41.438Z,101893.33
2018-09-01T16:28:11.206Z,101890.45
2018-09-01T16:30:41.002Z,101891.66
2018-09-01T16:33:10.723Z,101891.88
2018-09-01T16:35:40.933Z,101893.66
2018-09-01T16:38:12.125Z,101892.95
2018-09-01T16:40:43.734Z,101900.43
2018-09-01T16:43:13.814Z,101899.90
2018-09-01T16:45:43.592Z,101897.48
2018-09-01T16:48:13.354Z,101899.27
2018-09-01T16:50:43.405Z,101900.98
2018-09-01T16:53:13.287Z,101895.11
2018-09-01T16:55:43.187Z,101895.42
2018-09-01T16:58:12.992Z,101893.45
2018-09-01T17:00:42.944Z,101891.34
2018-09-01T17:03:12.546Z,101890.30
2018-09-01T17:05:42.254Z,101896.00
2018-09-01T17:08:12.087Z,101894.34
2018-09-01T17:10:41.984Z,101899.27
2018-09-01T17:13:11.755Z,101904.17
2018-09-01T17:15:41.487Z,101907.28
2018-09-01T17:18:11.286Z,101908.31
2018-09-01T17:20:40.958Z,101910.95
2018-09-01T17:23:10.672Z,101908.80
2018-09-01T17:25:40.398Z,101912.27
2018-09-01T17:28:10.121Z,101912.37
2018-09-01T17:30:39.918Z,101915.07
2018-09-01T17:33:09.813Z,101914.63
2018-09-01T17:35:39.617Z,101911.56
2018-09-01T17:38:10.174Z,101915.13
2018-09-01T17:40:39.995Z,101913.38
2018-09-01T17:43:09.675Z,101913.83
2018-09-01T17:45:39.398Z,101916.00
2018-09-01T17:48:09.193Z,101920.39
2018-09-01T17:50:38.968Z,101924.75
2018-09-01T17:53:08.678Z,101922.06
2018-09-01T17:55:38.440Z,101925.09
2018-09-01T17:58:08.244Z,101932.00
2018-09-01T18:00:38.147Z,101931.52
2018-09-01T18:03:08.556Z,101928.32
2018-09-01T18:05:38.339Z,101932.22
2018-09-01T18:08:08.005Z,101936.14
2018-09-01T18:10:37.795Z,101935.22
2018-09-01T18:13:07.791Z,101933.84
2018-09-01T18:15:37.513Z,101930.64
2018-09-01T18:18:08.250Z,101927.84
2018-09-01T18:20:38.029Z,101925.50
2018-09-01T18:23:07.952Z,101935.37
2018-09-01T18:25:37.659Z,101936.18
2018-09-01T18:28:07.502Z,101930.42
2018-09-01T18:30:37.182Z,101928.67
2018-09-01T18:33:06.897Z,101933.84
2018-09-01T18:35:36.746Z,101935.55
2018-09-01T18:38:06.722Z,101937.17
2018-09-01T18:40:36.526Z,101935.26
2018-09-01T18:43:06.254Z,101936.48
2018-09-01T18:45:35.992Z,101941.14
2018-09-01T18:48:06.036Z,101944.40
2018-09-01T18:53:00.756Z,101946.19
2018-09-01T18:55:30.498Z,101946.17
2018-09-01T18:58:00.218Z,101950.33
2018-09-01T19:00:30.437Z,101948.45
2018-09-01T19:03:00.173Z,101947.80
2018-09-01T19:05:29.879Z,101955.89
2018-09-01T19:07:59.698Z,101955.39
2018-09-01T19:10:29.406Z,101959.50
2018-09-01T19:12:59.188Z,101955.13
2018-09-01T19:15:28.965Z,101954.88
2018-09-01T19:17:58.802Z,101959.04
2018-09-01T19:20:29.577Z,101960.64
2018-09-01T19:23:01.433Z,101960.89
2018-09-01T19:25:31.292Z,101962.48
2018-09-01T19:28:01.078Z,101962.78
2018-09-01T19:30:30.894Z,101960.02
2018-09-01T19:33:00.613Z,101958.14
2018-09-01T19:35:30.435Z,101956.30
2018-09-01T19:38:00.277Z,101961.45
2018-09-01T19:40:30.389Z,101956.09
2018-09-01T19:43:00.868Z,101955.06
2018-09-01T19:45:31.635Z,101961.58
2018-09-01T19:48:01.313Z,101954.47
2018-09-01T19:50:31.159Z,101960.09
2018-09-01T19:53:00.995Z,101962.75
2018-09-01T19:55:30.938Z,101957.34
2018-09-01T19:58:00.865Z,101966.81
2018-09-01T20:00:30.767Z,101964.12
2018-09-01T20:03:00.602Z,101962.22
2018-09-01T20:05:30.568Z,101968.17
2018-09-01T20:08:00.432Z,101960.61
2018-09-01T20:10:30.252Z,101969.22
2018-09-01T20:13:00.024Z,101967.31
2018-09-01T20:15:29.866Z,101962.74
2018-09-01T20:17:59.924Z,101967.34
2018-09-01T20:20:29.725Z,101959.35
2018-09-01T20:22:59.474Z,101966.46
2018-09-01T20:25:29.299Z,101967.23
2018-09-01T20:27:59.019Z,101968.91
2018-09-01T20:30:28.745Z,101967.16
2018-09-01T20:32:58.444Z,101956.16
2018-09-01T20:36:03.579Z,101961.75
2018-09-01T20:38:33.358Z,101967.67
2018-09-01T20:41:03.150Z,101956.85
2018-09-01T20:43:32.962Z,101963.14
2018-09-01T20:46:02.696Z,101960.17
2018-09-01T20:48:32.409Z,101965.22
2018-09-01T20:51:02.134Z,101956.06
2018-09-01T20:53:31.823Z,101955.11
2018-09-01T20:56:02.642Z,101953.72
2018-09-01T20:58:32.581Z,101952.30
2018-09-01T21:01:03.557Z,101950.03
2018-09-01T21:03:33.338Z,101962.08
2018-09-01T21:06:03.115Z,101953.44
2018-09-01T21:08:33.158Z,101955.56
2018-09-01T21:11:02.984Z,101952.78
2018-09-01T21:13:32.717Z,101955.33
2018-09-01T21:16:02.514Z,101957.45
2018-09-01T21:18:32.274Z,101961.73
2018-09-01T21:21:02.002Z,101965.00
2018-09-01T21:23:31.961Z,101967.52
2018-09-01T21:26:01.828Z,101967.46
2018-09-01T21:28:32.883Z,101969.44
2018-09-01T21:31:02.852Z,101973.79
2018-09-01T21:33:32.671Z,101971.95
2018-09-01T21:36:02.695Z,101971.95
2018-09-01T21:38:32.437Z,101968.13
2018-09-01T21:41:02.166Z,101972.40
2018-09-01T21:43:31.894Z,101971.85
2018-09-01T21:46:02.662Z,101966.95
2018-09-01T21:48:32.436Z,101970.67
2018-09-01T21:51:02.158Z,101972.66
2018-09-01T21:53:31.904Z,101965.56
2018-09-01T21:56:01.725Z,101970.58
2018-09-01T21:58:31.447Z,101971.30
2018-09-01T22:01:06.316Z,101964.95
2018-09-01T22:03:40.139Z,101964.86
2018-09-01T22:06:09.957Z,101960.86
2018-09-01T22:08:39.633Z,101962.48
2018-09-01T22:11:09.489Z,101964.53
2018-09-01T22:13:39.897Z,101958.25
2018-09-01T22:16:09.866Z,101965.60
2018-09-01T22:18:40.371Z,101955.26
2018-09-01T22:21:11.321Z,101960.07
2018-09-01T22:23:41.721Z,101953.41
2018-09-01T22:26:12.168Z,101950.12
2018-09-01T22:28:43.053Z,101952.53
2018-09-01T22:31:12.904Z,101948.85
2018-09-01T22:33:44.014Z,101950.41
2018-09-01T22:36:13.876Z,101949.11
2018-09-01T22:38:43.840Z,101947.29
2018-09-01T22:41:14.779Z,101948.52
2018-09-01T22:43:44.764Z,101945.59
2018-09-01T22:46:15.230Z,101945.78
2018-09-01T22:48:44.937Z,101947.83
2018-09-01T22:51:14.724Z,101953.15
2018-09-01T22:53:44.559Z,101947.48
2018-09-01T22:56:15.508Z,101953.12
2018-09-01T22:58:45.771Z,101947.39
2018-09-01T23:01:15.593Z,101943.25
2018-09-01T23:03:45.245Z,101943.95
2018-09-01T23:06:15.105Z,101946.87
2018-09-01T23:08:45.426Z,101938.44
2018-09-01T23:11:15.321Z,101939.80
2018-09-01T23:13:45.096Z,101940.62
2018-09-01T23:16:14.862Z,101940.55
2018-09-01T23:18:44.792Z,101935.98
2018-09-01T23:21:14.580Z,101936.82
2018-09-01T23:23:44.245Z,101940.86
2018-09-01T23:26:14.018Z,101941.35
2018-09-01T23:28:43.691Z,101943.39
2018-09-01T23:31:13.422Z,101943.60
2018-09-01T23:33:43.262Z,101944.83
2018-09-01T23:36:12.962Z,101939.39
2018-09-01T23:38:42.742Z,101944.94
2018-09-01T23:41:12.475Z,101950.73
2018-09-01T23:43:42.292Z,101939.45
2018-09-01T23:46:12.026Z,101949.75
2018-09-01T23:48:41.833Z,101959.92
2018-09-01T23:51:11.534Z,101958.44
2018-09-01T23:53:41.335Z,101964.45
2018-09-01T23:56:11.114Z,101959.56
2018-09-01T23:58:40.822Z,101962.34
